sensor_id;sensor_type;location;lat;lon;timestamp;temperature;humidity
12655;DHT22;6392;44.644;11.448;2023-10-31T00:02:09;17.50;99.90
12655;DHT22;6392;44.644;11.448;2023-10-31T00:04:36;17.50;99.90
12655;DHT22;6392;44.644;11.448;2023-10-31T00:07:04;17.50;99.90
12655;DHT22;6392;44.644;11.448;2023-10-31T00:09:31;17.40;99.90
12655;DHT22;6392;44.644;11.448;2023-10-31T00:11:58;17.40;99.90
12655;DHT22;6392;44.644;11.448;2023-10-31T00:14:25;17.40;99.90
12655;DHT22;6392;44.644;11.448;2023-10-31T00:16:53;17.30;99.90
12655;DHT22;6392;44.644;11.448;2023-10-31T00:19:20;17.30;99.90
12655;DHT22;6392;44.644;11.448;2023-10-31T00:21:47;17.20;99.90
12655;DHT22;6392;44.644;11.448;2023-10-31T00:24:15;17.20;99.90
12655;DHT22;6392;44.644;11.448;2023-10-31T00:26:42;17.20;99.90
12655;DHT22;6392;44.644;11.448;2023-10-31T00:29:09;17.10;99.90
12655;DHT22;6392;44.644;11.448;2023-10-31T00:31:36;17.10;99.90
12655;DHT22;6392;44.644;11.448;2023-10-31T00:34:06;17.10;99.90
12655;DHT22;6392;44.644;11.448;2023-10-31T00:36:34;17.10;99.90
12655;DHT22;6392;44.644;11.448;2023-10-31T00:39:01;17.10;99.90
12655;DHT22;6392;44.644;11.448;2023-10-31T00:41:30;17.10;99.90
12655;DHT22;6392;44.644;11.448;2023-10-31T00:43:57;17.10;99.90
12655;DHT22;6392;44.644;11.448;2023-10-31T00:46:24;17.10;99.90
12655;DHT22;6392;44.644;11.448;2023-10-31T00:48:51;17.10;99.90
12655;DHT22;6392;44.644;11.448;2023-10-31T00:51:18;17.10;99.90
12655;DHT22;6392;44.644;11.448;2023-10-31T00:53:45;17.00;99.90
12655;DHT22;6392;44.644;11.448;2023-10-31T00:56:12;17.00;99.90
12655;DHT22;6392;44.644;11.448;2023-10-31T00:58:41;17.00;99.90
12655;DHT22;6392;44.644;11.448;2023-10-31T01:01:08;17.00;99.90
12655;DHT22;6392;44.644;11.448;2023-10-31T01:03:35;17.10;99.90
12655;DHT22;6392;44.644;11.448;2023-10-31T01:06:02;17.10;99.90
12655;DHT22;6392;44.644;11.448;2023-10-31T01:08:29;17.10;99.90
12655;DHT22;6392;44.644;11.448;2023-10-31T01:10:56;17.20;99.90
12655;DHT22;6392;44.644;11.448;2023-10-31T01:13:23;17.20;99.90
12655;DHT22;6392;44.644;11.448;2023-10-31T01:15:52;17.20;99.90
12655;DHT22;6392;44.644;11.448;2023-10-31T01:18:19;17.10;99.90
12655;DHT22;6392;44.644;11.448;2023-10-31T01:20:46;17.10;99.90
12655;DHT22;6392;44.644;11.448;2023-10-31T01:23:13;17.00;99.90
12655;DHT22;6392;44.644;11.448;2023-10-31T01:25:40;17.00;99.90
12655;DHT22;6392;44.644;11.448;2023-10-31T01:28:07;17.00;99.90
12655;DHT22;6392;44.644;11.448;2023-10-31T01:30:34;17.00;99.90
12655;DHT22;6392;44.644;11.448;2023-10-31T01:33:02;17.00;99.90
12655;DHT22;6392;44.644;11.448;2023-10-31T01:35:29;17.00;99.90
12655;DHT22;6392;44.644;11.448;2023-10-31T01:37:56;17.00;99.90
12655;DHT22;6392;44.644;11.448;2023-10-31T01:40:24;17.00;99.90
12655;DHT22;6392;44.644;11.448;2023-10-31T01:42:50;17.00;99.90
12655;DHT22;6392;44.644;11.448;2023-10-31T01:45:18;16.90;99.90
12655;DHT22;6392;44.644;11.448;2023-10-31T01:47:46;16.90;99.90
12655;DHT22;6392;44.644;11.448;2023-10-31T01:50:16;16.90;99.90
12655;DHT22;6392;44.644;11.448;2023-10-31T01:52:44;16.90;99.90
12655;DHT22;6392;44.644;11.448;2023-10-31T01:55:12;16.90;99.90
12655;DHT22;6392;44.644;11.448;2023-10-31T01:57:39;17.00;99.90
12655;DHT22;6392;44.644;11.448;2023-10-31T02:00:07;17.00;99.90
12655;DHT22;6392;44.644;11.448;2023-10-31T02:02:38;17.00;99.90
12655;DHT22;6392;44.644;11.448;2023-10-31T02:05:07;17.00;99.90
12655;DHT22;6392;44.644;11.448;2023-10-31T02:07:35;17.00;99.90
12655;DHT22;6392;44.644;11.448;2023-10-31T02:10:03;17.00;99.90
12655;DHT22;6392;44.644;11.448;2023-10-31T02:12:33;16.90;99.90
12655;DHT22;6392;44.644;11.448;2023-10-31T02:15:01;16.90;99.90
12655;DHT22;6392;44.644;11.448;2023-10-31T02:17:28;16.90;99.90
12655;DHT22;6392;44.644;11.448;2023-10-31T02:19:55;16.80;99.90
12655;DHT22;6392;44.644;11.448;2023-10-31T02:22:23;16.80;99.90
12655;DHT22;6392;44.644;11.448;2023-10-31T02:24:50;16.70;99.90
12655;DHT22;6392;44.644;11.448;2023-10-31T02:27:17;16.70;99.90
12655;DHT22;6392;44.644;11.448;2023-10-31T02:29:44;16.60;99.90
12655;DHT22;6392;44.644;11.448;2023-10-31T02:32:12;16.60;99.90
12655;DHT22;6392;44.644;11.448;2023-10-31T02:34:39;16.60;99.90
12655;DHT22;6392;44.644;11.448;2023-10-31T02:37:06;16.60;99.90
12655;DHT22;6392;44.644;11.448;2023-10-31T02:39:37;16.60;99.90
12655;DHT22;6392;44.644;11.448;2023-10-31T02:42:04;16.60;99.90
12655;DHT22;6392;44.644;11.448;2023-10-31T02:44:31;16.60;99.90
12655;DHT22;6392;44.644;11.448;2023-10-31T02:46:58;16.60;99.90
12655;DHT22;6392;44.644;11.448;2023-10-31T02:49:25;16.70;99.90
12655;DHT22;6392;44.644;11.448;2023-10-31T02:51:52;16.70;99.90
12655;DHT22;6392;44.644;11.448;2023-10-31T02:54:19;16.80;99.90
12655;DHT22;6392;44.644;11.448;2023-10-31T02:56:48;16.80;99.90
12655;DHT22;6392;44.644;11.448;2023-10-31T02:59:15;16.80;99.90
12655;DHT22;6392;44.644;11.448;2023-10-31T03:01:42;16.90;99.90
12655;DHT22;6392;44.644;11.448;2023-10-31T03:04:09;16.90;99.90
12655;DHT22;6392;44.644;11.448;2023-10-31T03:06:36;17.00;99.90
12655;DHT22;6392;44.644;11.448;2023-10-31T03:09:04;17.00;99.90
12655;DHT22;6392;44.644;11.448;2023-10-31T03:11:31;17.00;99.90
12655;DHT22;6392;44.644;11.448;2023-10-31T03:14:00;17.10;99.90
12655;DHT22;6392;44.644;11.448;2023-10-31T03:16:27;17.10;99.90
12655;DHT22;6392;44.644;11.448;2023-10-31T03:18:54;17.10;99.90
12655;DHT22;6392;44.644;11.448;2023-10-31T03:21:21;17.20;99.90
12655;DHT22;6392;44.644;11.448;2023-10-31T03:23:49;17.20;99.90
12655;DHT22;6392;44.644;11.448;2023-10-31T03:26:18;17.20;99.90
12655;DHT22;6392;44.644;11.448;2023-10-31T03:28:46;17.20;99.90
12655;DHT22;6392;44.644;11.448;2023-10-31T03:31:14;17.30;99.90
12655;DHT22;6392;44.644;11.448;2023-10-31T03:33:42;17.30;99.90
12655;DHT22;6392;44.644;11.448;2023-10-31T03:36:09;17.30;99.90
12655;DHT22;6392;44.644;11.448;2023-10-31T03:38:36;17.40;99.90
12655;DHT22;6392;44.644;11.448;2023-10-31T03:41:03;17.40;99.90
12655;DHT22;6392;44.644;11.448;2023-10-31T03:43:31;17.40;99.90
12655;DHT22;6392;44.644;11.448;2023-10-31T03:45:58;17.50;99.90
12655;DHT22;6392;44.644;11.448;2023-10-31T03:48:27;17.50;99.90
12655;DHT22;6392;44.644;11.448;2023-10-31T03:50:54;17.60;99.90
12655;DHT22;6392;44.644;11.448;2023-10-31T03:53:21;17.50;99.90
12655;DHT22;6392;44.644;11.448;2023-10-31T03:55:48;17.60;99.90
12655;DHT22;6392;44.644;11.448;2023-10-31T03:58:15;17.60;99.90
12655;DHT22;6392;44.644;11.448;2023-10-31T04:00:42;17.60;99.90
12655;DHT22;6392;44.644;11.448;2023-10-31T04:03:09;17.60;99.90
12655;DHT22;6392;44.644;11.448;2023-10-31T04:05:37;17.60;99.90
12655;DHT22;6392;44.644;11.448;2023-10-31T04:08:04;17.60;99.90
12655;DHT22;6392;44.644;11.448;2023-10-31T04:10:31;17.60;99.90
12655;DHT22;6392;44.644;11.448;2023-10-31T04:12:58;17.70;99.90
12655;DHT22;6392;44.644;11.448;2023-10-31T04:15:25;17.70;99.90
12655;DHT22;6392;44.644;11.448;2023-10-31T04:17:52;17.70;99.90
12655;DHT22;6392;44.644;11.448;2023-10-31T04:20:20;17.70;99.90
12655;DHT22;6392;44.644;11.448;2023-10-31T04:22:48;17.70;99.90
12655;DHT22;6392;44.644;11.448;2023-10-31T04:25:15;17.60;99.90
12655;DHT22;6392;44.644;11.448;2023-10-31T04:27:42;17.60;99.90
12655;DHT22;6392;44.644;11.448;2023-10-31T04:30:10;17.60;99.90
12655;DHT22;6392;44.644;11.448;2023-10-31T04:32:37;17.60;99.90
12655;DHT22;6392;44.644;11.448;2023-10-31T04:35:05;17.60;99.90
12655;DHT22;6392;44.644;11.448;2023-10-31T04:37:32;17.60;99.90
12655;DHT22;6392;44.644;11.448;2023-10-31T04:40:00;17.60;99.90
12655;DHT22;6392;44.644;11.448;2023-10-31T04:42:28;17.60;99.90
12655;DHT22;6392;44.644;11.448;2023-10-31T04:44:55;17.60;99.90
12655;DHT22;6392;44.644;11.448;2023-10-31T04:47:22;17.60;99.90
12655;DHT22;6392;44.644;11.448;2023-10-31T04:49:49;17.60;99.90
12655;DHT22;6392;44.644;11.448;2023-10-31T04:52:17;17.60;99.90
12655;DHT22;6392;44.644;11.448;2023-10-31T04:54:45;17.60;99.90
12655;DHT22;6392;44.644;11.448;2023-10-31T04:57:13;17.60;99.90
12655;DHT22;6392;44.644;11.448;2023-10-31T04:59:40;17.60;99.90
12655;DHT22;6392;44.644;11.448;2023-10-31T05:02:07;17.50;99.90
12655;DHT22;6392;44.644;11.448;2023-10-31T05:04:38;17.50;99.90
12655;DHT22;6392;44.644;11.448;2023-10-31T05:07:05;17.50;99.90
12655;DHT22;6392;44.644;11.448;2023-10-31T05:09:32;17.50;99.90
12655;DHT22;6392;44.644;11.448;2023-10-31T05:11:59;17.50;99.90
12655;DHT22;6392;44.644;11.448;2023-10-31T05:14:27;17.50;99.90
12655;DHT22;6392;44.644;11.448;2023-10-31T05:16:54;17.50;99.90
12655;DHT22;6392;44.644;11.448;2023-10-31T05:19:21;17.50;99.90
12655;DHT22;6392;44.644;11.448;2023-10-31T05:21:48;17.50;99.90
12655;DHT22;6392;44.644;11.448;2023-10-31T05:24:15;17.50;99.90
12655;DHT22;6392;44.644;11.448;2023-10-31T05:26:43;17.50;99.90
12655;DHT22;6392;44.644;11.448;2023-10-31T05:29:10;17.50;99.90
12655;DHT22;6392;44.644;11.448;2023-10-31T05:31:38;17.50;99.90
12655;DHT22;6392;44.644;11.448;2023-10-31T05:34:07;17.40;99.90
12655;DHT22;6392;44.644;11.448;2023-10-31T05:36:34;17.40;99.90
12655;DHT22;6392;44.644;11.448;2023-10-31T05:39:01;17.40;99.90
12655;DHT22;6392;44.644;11.448;2023-10-31T05:41:28;17.40;99.90
12655;DHT22;6392;44.644;11.448;2023-10-31T05:43:55;17.30;99.90
12655;DHT22;6392;44.644;11.448;2023-10-31T05:46:22;17.30;99.90
12655;DHT22;6392;44.644;11.448;2023-10-31T05:48:50;17.20;99.90
12655;DHT22;6392;44.644;11.448;2023-10-31T05:51:18;17.20;99.90
12655;DHT22;6392;44.644;11.448;2023-10-31T05:53:47;17.20;99.90
12655;DHT22;6392;44.644;11.448;2023-10-31T05:56:15;17.30;99.90
12655;DHT22;6392;44.644;11.448;2023-10-31T05:58:43;17.30;99.90
12655;DHT22;6392;44.644;11.448;2023-10-31T06:01:10;17.30;99.90
12655;DHT22;6392;44.644;11.448;2023-10-31T06:03:37;17.30;99.90
12655;DHT22;6392;44.644;11.448;2023-10-31T06:06:09;17.30;99.90
12655;DHT22;6392;44.644;11.448;2023-10-31T06:08:37;17.40;99.90
12655;DHT22;6392;44.644;11.448;2023-10-31T06:11:04;17.40;99.90
12655;DHT22;6392;44.644;11.448;2023-10-31T06:13:31;17.40;99.90
12655;DHT22;6392;44.644;11.448;2023-10-31T06:16:00;17.40;99.90
12655;DHT22;6392;44.644;11.448;2023-10-31T06:18:28;17.40;99.90
12655;DHT22;6392;44.644;11.448;2023-10-31T06:20:55;17.40;99.90
12655;DHT22;6392;44.644;11.448;2023-10-31T06:23:24;17.40;99.90
12655;DHT22;6392;44.644;11.448;2023-10-31T06:25:51;17.40;99.90
12655;DHT22;6392;44.644;11.448;2023-10-31T06:28:18;17.40;99.90
12655;DHT22;6392;44.644;11.448;2023-10-31T06:30:45;17.40;99.90
12655;DHT22;6392;44.644;11.448;2023-10-31T06:33:12;17.30;99.90
12655;DHT22;6392;44.644;11.448;2023-10-31T06:35:39;17.30;99.90
12655;DHT22;6392;44.644;11.448;2023-10-31T06:38:06;17.30;99.90
12655;DHT22;6392;44.644;11.448;2023-10-31T06:40:35;17.30;99.90
12655;DHT22;6392;44.644;11.448;2023-10-31T06:43:02;17.30;99.90
12655;DHT22;6392;44.644;11.448;2023-10-31T06:45:29;17.30;99.90
12655;DHT22;6392;44.644;11.448;2023-10-31T06:47:56;17.30;99.90
12655;DHT22;6392;44.644;11.448;2023-10-31T06:50:23;17.40;99.90
12655;DHT22;6392;44.644;11.448;2023-10-31T06:52:50;17.40;99.90
12655;DHT22;6392;44.644;11.448;2023-10-31T06:55:17;17.40;99.90
12655;DHT22;6392;44.644;11.448;2023-10-31T06:57:46;17.40;99.90
12655;DHT22;6392;44.644;11.448;2023-10-31T07:00:13;17.40;99.90
12655;DHT22;6392;44.644;11.448;2023-10-31T07:02:41;17.30;99.90
12655;DHT22;6392;44.644;11.448;2023-10-31T07:05:08;17.40;99.90
12655;DHT22;6392;44.644;11.448;2023-10-31T07:07:35;17.40;99.90
12655;DHT22;6392;44.644;11.448;2023-10-31T07:10:03;17.40;99.90
12655;DHT22;6392;44.644;11.448;2023-10-31T07:12:30;17.40;99.90
12655;DHT22;6392;44.644;11.448;2023-10-31T07:14:58;17.50;99.90
12655;DHT22;6392;44.644;11.448;2023-10-31T07:17:26;17.50;99.90
12655;DHT22;6392;44.644;11.448;2023-10-31T07:19:53;17.50;99.90
12655;DHT22;6392;44.644;11.448;2023-10-31T07:22:20;17.50;99.90
12655;DHT22;6392;44.644;11.448;2023-10-31T07:24:48;17.50;99.90
12655;DHT22;6392;44.644;11.448;2023-10-31T07:27:15;17.60;99.90
12655;DHT22;6392;44.644;11.448;2023-10-31T07:29:42;17.70;99.90
12655;DHT22;6392;44.644;11.448;2023-10-31T07:32:10;17.70;99.90
12655;DHT22;6392;44.644;11.448;2023-10-31T07:34:40;17.80;99.90
12655;DHT22;6392;44.644;11.448;2023-10-31T07:37:08;17.90;99.90
12655;DHT22;6392;44.644;11.448;2023-10-31T07:39:35;18.00;99.90
12655;DHT22;6392;44.644;11.448;2023-10-31T07:42:02;18.10;99.90
12655;DHT22;6392;44.644;11.448;2023-10-31T07:44:29;18.10;99.90
12655;DHT22;6392;44.644;11.448;2023-10-31T07:46:56;18.10;99.90
12655;DHT22;6392;44.644;11.448;2023-10-31T07:49:25;18.10;99.90
12655;DHT22;6392;44.644;11.448;2023-10-31T07:51:52;18.10;99.90
12655;DHT22;6392;44.644;11.448;2023-10-31T07:54:19;18.10;99.90
12655;DHT22;6392;44.644;11.448;2023-10-31T07:56:46;18.10;99.90
12655;DHT22;6392;44.644;11.448;2023-10-31T07:59:13;18.00;99.90
12655;DHT22;6392;44.644;11.448;2023-10-31T08:01:41;18.00;99.90
12655;DHT22;6392;44.644;11.448;2023-10-31T08:04:08;17.80;99.90
12655;DHT22;6392;44.644;11.448;2023-10-31T08:06:37;17.30;99.90
12655;DHT22;6392;44.644;11.448;2023-10-31T08:09:04;16.90;99.90
12655;DHT22;6392;44.644;11.448;2023-10-31T08:11:31;16.60;99.90
12655;DHT22;6392;44.644;11.448;2023-10-31T08:14:00;16.30;99.90
12655;DHT22;6392;44.644;11.448;2023-10-31T08:16:27;16.10;99.90
12655;DHT22;6392;44.644;11.448;2023-10-31T08:18:54;15.90;99.90
12655;DHT22;6392;44.644;11.448;2023-10-31T08:21:21;15.60;99.90
12655;DHT22;6392;44.644;11.448;2023-10-31T08:23:50;15.40;99.90
12655;DHT22;6392;44.644;11.448;2023-10-31T08:26:17;15.10;99.90
12655;DHT22;6392;44.644;11.448;2023-10-31T08:28:44;15.00;99.90
12655;DHT22;6392;44.644;11.448;2023-10-31T08:31:11;14.80;99.90
12655;DHT22;6392;44.644;11.448;2023-10-31T08:33:38;14.60;99.90
12655;DHT22;6392;44.644;11.448;2023-10-31T08:36:06;14.30;99.90
12655;DHT22;6392;44.644;11.448;2023-10-31T08:38:33;14.00;99.90
12655;DHT22;6392;44.644;11.448;2023-10-31T08:41:02;13.80;99.90
12655;DHT22;6392;44.644;11.448;2023-10-31T08:43:29;13.70;99.90
12655;DHT22;6392;44.644;11.448;2023-10-31T08:45:56;13.50;99.90
12655;DHT22;6392;44.644;11.448;2023-10-31T08:48:23;13.40;99.90
12655;DHT22;6392;44.644;11.448;2023-10-31T08:50:50;13.40;99.90
12655;DHT22;6392;44.644;11.448;2023-10-31T08:53:17;13.40;99.90
12655;DHT22;6392;44.644;11.448;2023-10-31T08:55:44;13.40;99.90
12655;DHT22;6392;44.644;11.448;2023-10-31T08:58:14;13.50;99.90
12655;DHT22;6392;44.644;11.448;2023-10-31T09:00:43;13.60;99.90
12655;DHT22;6392;44.644;11.448;2023-10-31T09:03:10;13.80;99.90
12655;DHT22;6392;44.644;11.448;2023-10-31T09:05:37;14.00;99.90
12655;DHT22;6392;44.644;11.448;2023-10-31T09:08:05;14.10;99.90
12655;DHT22;6392;44.644;11.448;2023-10-31T09:10:32;14.30;99.90
12655;DHT22;6392;44.644;11.448;2023-10-31T09:12:59;14.40;99.90
12655;DHT22;6392;44.644;11.448;2023-10-31T09:15:28;14.60;99.90
12655;DHT22;6392;44.644;11.448;2023-10-31T09:17:55;14.70;99.90
12655;DHT22;6392;44.644;11.448;2023-10-31T09:20:22;14.90;99.90
12655;DHT22;6392;44.644;11.448;2023-10-31T09:22:49;15.00;99.90
12655;DHT22;6392;44.644;11.448;2023-10-31T09:25:17;15.10;99.90
12655;DHT22;6392;44.644;11.448;2023-10-31T09:27:44;15.20;99.90
12655;DHT22;6392;44.644;11.448;2023-10-31T09:30:11;15.30;99.90
12655;DHT22;6392;44.644;11.448;2023-10-31T09:32:39;15.40;99.90
12655;DHT22;6392;44.644;11.448;2023-10-31T09:35:07;15.60;99.90
12655;DHT22;6392;44.644;11.448;2023-10-31T09:37:34;15.70;99.90
12655;DHT22;6392;44.644;11.448;2023-10-31T09:40:02;15.80;99.90
12655;DHT22;6392;44.644;11.448;2023-10-31T09:42:35;15.90;99.90
12655;DHT22;6392;44.644;11.448;2023-10-31T09:45:07;16.00;99.90
12655;DHT22;6392;44.644;11.448;2023-10-31T09:47:50;16.20;99.90
12655;DHT22;6392;44.644;11.448;2023-10-31T09:50:24;16.30;99.90
12655;DHT22;6392;44.644;11.448;2023-10-31T09:53:01;16.30;99.90
12655;DHT22;6392;44.644;11.448;2023-10-31T09:55:33;16.50;99.90
12655;DHT22;6392;44.644;11.448;2023-10-31T09:58:03;16.50;99.90
12655;DHT22;6392;44.644;11.448;2023-10-31T10:00:30;16.60;99.90
12655;DHT22;6392;44.644;11.448;2023-10-31T10:03:01;16.70;99.90
12655;DHT22;6392;44.644;11.448;2023-10-31T10:05:28;16.80;99.90
12655;DHT22;6392;44.644;11.448;2023-10-31T10:07:57;16.90;99.90
12655;DHT22;6392;44.644;11.448;2023-10-31T10:10:25;17.00;99.90
12655;DHT22;6392;44.644;11.448;2023-10-31T10:12:52;17.00;99.90
12655;DHT22;6392;44.644;11.448;2023-10-31T10:15:20;17.10;99.90
12655;DHT22;6392;44.644;11.448;2023-10-31T10:17:50;17.20;99.90
12655;DHT22;6392;44.644;11.448;2023-10-31T10:20:19;17.30;99.90
12655;DHT22;6392;44.644;11.448;2023-10-31T10:22:47;17.30;99.90
12655;DHT22;6392;44.644;11.448;2023-10-31T10:25:15;17.40;99.90
12655;DHT22;6392;44.644;11.448;2023-10-31T10:27:42;17.40;99.90
12655;DHT22;6392;44.644;11.448;2023-10-31T10:30:10;17.50;99.90
12655;DHT22;6392;44.644;11.448;2023-10-31T10:32:38;17.50;99.90
12655;DHT22;6392;44.644;11.448;2023-10-31T10:35:08;17.60;99.90
12655;DHT22;6392;44.644;11.448;2023-10-31T10:37:38;17.60;99.90
12655;DHT22;6392;44.644;11.448;2023-10-31T10:40:07;17.70;99.90
12655;DHT22;6392;44.644;11.448;2023-10-31T10:42:41;17.70;99.90
12655;DHT22;6392;44.644;11.448;2023-10-31T10:45:13;17.80;99.90
12655;DHT22;6392;44.644;11.448;2023-10-31T10:47:45;17.80;99.90
12655;DHT22;6392;44.644;11.448;2023-10-31T10:50:13;17.90;99.90
12655;DHT22;6392;44.644;11.448;2023-10-31T10:52:46;18.00;99.90
12655;DHT22;6392;44.644;11.448;2023-10-31T10:55:30;18.00;99.90
12655;DHT22;6392;44.644;11.448;2023-10-31T10:58:04;18.00;99.90
12655;DHT22;6392;44.644;11.448;2023-10-31T11:00:32;18.00;99.90
12655;DHT22;6392;44.644;11.448;2023-10-31T11:03:00;18.00;99.90
12655;DHT22;6392;44.644;11.448;2023-10-31T11:05:27;18.10;99.90
12655;DHT22;6392;44.644;11.448;2023-10-31T11:07:57;18.10;99.90
12655;DHT22;6392;44.644;11.448;2023-10-31T11:10:24;18.20;99.90
12655;DHT22;6392;44.644;11.448;2023-10-31T11:12:52;18.20;99.90
12655;DHT22;6392;44.644;11.448;2023-10-31T11:15:20;18.30;99.90
12655;DHT22;6392;44.644;11.448;2023-10-31T11:17:47;18.40;99.90
12655;DHT22;6392;44.644;11.448;2023-10-31T11:20:16;18.40;99.90
12655;DHT22;6392;44.644;11.448;2023-10-31T11:22:44;18.50;99.90
12655;DHT22;6392;44.644;11.448;2023-10-31T11:25:17;18.50;99.90
12655;DHT22;6392;44.644;11.448;2023-10-31T11:27:46;18.60;99.90
12655;DHT22;6392;44.644;11.448;2023-10-31T11:30:21;18.60;99.90
12655;DHT22;6392;44.644;11.448;2023-10-31T11:32:48;18.70;99.90
12655;DHT22;6392;44.644;11.448;2023-10-31T11:35:16;18.70;99.90
12655;DHT22;6392;44.644;11.448;2023-10-31T11:37:47;18.80;99.90
12655;DHT22;6392;44.644;11.448;2023-10-31T11:40:20;18.80;99.90
12655;DHT22;6392;44.644;11.448;2023-10-31T11:42:49;18.90;99.90
12655;DHT22;6392;44.644;11.448;2023-10-31T11:45:27;18.90;99.90
12655;DHT22;6392;44.644;11.448;2023-10-31T11:47:55;19.00;99.90
12655;DHT22;6392;44.644;11.448;2023-10-31T11:50:22;19.00;99.90
12655;DHT22;6392;44.644;11.448;2023-10-31T11:53:06;19.10;99.90
12655;DHT22;6392;44.644;11.448;2023-10-31T11:55:36;19.10;99.90
12655;DHT22;6392;44.644;11.448;2023-10-31T11:58:16;19.20;99.90
12655;DHT22;6392;44.644;11.448;2023-10-31T12:00:44;19.20;99.90
12655;DHT22;6392;44.644;11.448;2023-10-31T12:03:12;19.20;99.90
12655;DHT22;6392;44.644;11.448;2023-10-31T12:05:39;19.30;99.90
12655;DHT22;6392;44.644;11.448;2023-10-31T12:08:06;19.40;99.90
12655;DHT22;6392;44.644;11.448;2023-10-31T12:10:35;19.40;99.90
12655;DHT22;6392;44.644;11.448;2023-10-31T12:13:02;19.50;99.90
12655;DHT22;6392;44.644;11.448;2023-10-31T12:15:29;19.50;99.90
12655;DHT22;6392;44.644;11.448;2023-10-31T12:17:59;19.60;99.90
12655;DHT22;6392;44.644;11.448;2023-10-31T12:20:26;19.70;99.90
12655;DHT22;6392;44.644;11.448;2023-10-31T12:23:03;19.80;99.90
12655;DHT22;6392;44.644;11.448;2023-10-31T12:25:30;20.00;99.90
12655;DHT22;6392;44.644;11.448;2023-10-31T12:28:02;20.10;99.90
12655;DHT22;6392;44.644;11.448;2023-10-31T12:30:29;20.20;99.90
12655;DHT22;6392;44.644;11.448;2023-10-31T12:32:56;20.30;99.90
12655;DHT22;6392;44.644;11.448;2023-10-31T12:35:25;20.30;99.90
12655;DHT22;6392;44.644;11.448;2023-10-31T12:37:53;20.50;99.90
12655;DHT22;6392;44.644;11.448;2023-10-31T12:40:22;20.50;99.90
12655;DHT22;6392;44.644;11.448;2023-10-31T12:42:49;20.60;99.90
12655;DHT22;6392;44.644;11.448;2023-10-31T12:45:19;20.70;99.90
12655;DHT22;6392;44.644;11.448;2023-10-31T12:48:00;20.80;99.90
12655;DHT22;6392;44.644;11.448;2023-10-31T12:50:28;20.90;99.90
12655;DHT22;6392;44.644;11.448;2023-10-31T12:52:55;21.00;99.90
12655;DHT22;6392;44.644;11.448;2023-10-31T12:55:24;21.20;99.90
12655;DHT22;6392;44.644;11.448;2023-10-31T12:57:52;21.20;99.90
12655;DHT22;6392;44.644;11.448;2023-10-31T13:00:21;21.30;99.90
12655;DHT22;6392;44.644;11.448;2023-10-31T13:02:52;21.40;99.90
12655;DHT22;6392;44.644;11.448;2023-10-31T13:05:26;21.50;99.90
12655;DHT22;6392;44.644;11.448;2023-10-31T13:07:54;21.60;99.90
12655;DHT22;6392;44.644;11.448;2023-10-31T13:10:23;21.70;99.90
12655;DHT22;6392;44.644;11.448;2023-10-31T13:12:50;21.90;99.90
12655;DHT22;6392;44.644;11.448;2023-10-31T13:15:20;21.90;99.90
12655;DHT22;6392;44.644;11.448;2023-10-31T13:17:48;22.00;99.90
12655;DHT22;6392;44.644;11.448;2023-10-31T13:20:18;22.10;99.90
12655;DHT22;6392;44.644;11.448;2023-10-31T13:22:46;22.10;99.90
12655;DHT22;6392;44.644;11.448;2023-10-31T13:25:14;22.20;99.90
12655;DHT22;6392;44.644;11.448;2023-10-31T13:27:42;22.30;99.90
12655;DHT22;6392;44.644;11.448;2023-10-31T13:30:11;22.50;99.90
12655;DHT22;6392;44.644;11.448;2023-10-31T13:32:41;22.50;99.90
12655;DHT22;6392;44.644;11.448;2023-10-31T13:35:08;22.60;99.90
12655;DHT22;6392;44.644;11.448;2023-10-31T13:37:36;22.70;99.90
12655;DHT22;6392;44.644;11.448;2023-10-31T13:40:03;22.80;99.90
12655;DHT22;6392;44.644;11.448;2023-10-31T13:42:31;22.90;99.90
12655;DHT22;6392;44.644;11.448;2023-10-31T13:44:58;22.90;99.90
12655;DHT22;6392;44.644;11.448;2023-10-31T13:47:25;23.00;99.90
12655;DHT22;6392;44.644;11.448;2023-10-31T13:49:53;22.80;99.90
12655;DHT22;6392;44.644;11.448;2023-10-31T13:52:20;22.80;99.90
12655;DHT22;6392;44.644;11.448;2023-10-31T13:54:48;22.60;99.90
12655;DHT22;6392;44.644;11.448;2023-10-31T13:57:15;22.40;99.90
12655;DHT22;6392;44.644;11.448;2023-10-31T13:59:42;22.10;99.90
12655;DHT22;6392;44.644;11.448;2023-10-31T14:02:09;21.90;99.90
12655;DHT22;6392;44.644;11.448;2023-10-31T14:04:36;21.60;99.90
12655;DHT22;6392;44.644;11.448;2023-10-31T14:07:04;21.50;99.90
12655;DHT22;6392;44.644;11.448;2023-10-31T14:09:32;21.30;99.90
12655;DHT22;6392;44.644;11.448;2023-10-31T14:11:59;21.20;99.90
12655;DHT22;6392;44.644;11.448;2023-10-31T14:14:26;21.10;99.90
12655;DHT22;6392;44.644;11.448;2023-10-31T14:16:53;20.90;99.90
12655;DHT22;6392;44.644;11.448;2023-10-31T14:19:21;20.80;99.90
12655;DHT22;6392;44.644;11.448;2023-10-31T14:21:48;20.70;99.90
12655;DHT22;6392;44.644;11.448;2023-10-31T14:24:17;20.60;99.90
12655;DHT22;6392;44.644;11.448;2023-10-31T14:26:44;20.50;99.90
12655;DHT22;6392;44.644;11.448;2023-10-31T14:29:11;20.50;99.90
12655;DHT22;6392;44.644;11.448;2023-10-31T14:31:39;20.50;99.90
12655;DHT22;6392;44.644;11.448;2023-10-31T14:34:07;20.40;99.90
12655;DHT22;6392;44.644;11.448;2023-10-31T14:36:34;20.40;99.90
12655;DHT22;6392;44.644;11.448;2023-10-31T14:39:01;20.30;99.90
12655;DHT22;6392;44.644;11.448;2023-10-31T14:41:29;20.30;99.90
12655;DHT22;6392;44.644;11.448;2023-10-31T14:43:59;20.20;99.90
12655;DHT22;6392;44.644;11.448;2023-10-31T14:46:26;20.20;99.90
12655;DHT22;6392;44.644;11.448;2023-10-31T14:48:54;20.10;99.90
12655;DHT22;6392;44.644;11.448;2023-10-31T14:51:21;20.10;99.90
12655;DHT22;6392;44.644;11.448;2023-10-31T14:53:48;20.10;99.90
12655;DHT22;6392;44.644;11.448;2023-10-31T14:56:18;20.00;99.90
12655;DHT22;6392;44.644;11.448;2023-10-31T14:58:47;20.00;99.90
12655;DHT22;6392;44.644;11.448;2023-10-31T15:01:14;20.00;99.90
12655;DHT22;6392;44.644;11.448;2023-10-31T15:03:42;20.00;99.90
12655;DHT22;6392;44.644;11.448;2023-10-31T15:06:09;19.90;99.90
12655;DHT22;6392;44.644;11.448;2023-10-31T15:08:36;19.90;99.90
12655;DHT22;6392;44.644;11.448;2023-10-31T15:11:04;19.90;99.90
12655;DHT22;6392;44.644;11.448;2023-10-31T15:13:30;19.90;99.90
12655;DHT22;6392;44.644;11.448;2023-10-31T15:15:59;19.80;99.90
12655;DHT22;6392;44.644;11.448;2023-10-31T15:18:26;19.80;99.90
12655;DHT22;6392;44.644;11.448;2023-10-31T15:20:53;19.80;99.90
12655;DHT22;6392;44.644;11.448;2023-10-31T15:23:23;19.70;99.90
12655;DHT22;6392;44.644;11.448;2023-10-31T15:25:51;19.70;99.90
12655;DHT22;6392;44.644;11.448;2023-10-31T15:28:22;19.70;99.90
12655;DHT22;6392;44.644;11.448;2023-10-31T15:30:50;19.60;99.90
12655;DHT22;6392;44.644;11.448;2023-10-31T15:33:19;19.60;99.90
12655;DHT22;6392;44.644;11.448;2023-10-31T15:35:46;19.60;99.90